Time,TemperatureF,DewpointF,PressureIn,WindDirection,WindDirectionDegrees,WindSpeedMPH,WindSpeedGustMPH,Humidity,HourlyPrecipIn,Conditions,Clouds,dailyrainin,SoftwareType,DateUTC
2013-02-02 00:00:00,22.3,9.7,30.05,WNW,287,9.2,9.2,58,0.00,CLR,FEW,0.00,WeatherDisplay:10.37,2013-02-02 05:00:00,
2013-02-02 00:01:00,22.3,9.7,30.05,West,274,9.2,9.2,58,0.00,CLR,FEW,0.00,WeatherDisplay:10.37,2013-02-02 05:01:00,
2013-02-02 00:06:00,22.3,9.4,30.05,WSW,238,10.4,10.4,57,0.00,CLR,FEW,0.00,WeatherDisplay:10.37,2013-02-02 05:06:00,
2013-02-02 00:11:00,22.3,9.4,30.05,West,267,5.8,5.8,57,0.00,CLR,FEW,0.00,WeatherDisplay:10.37,2013-02-02 05:11:00,
2013-02-02 00:16:00,22.2,9.3,30.05,West,278,10.4,10.4,57,0.00,CLR,FEW,0.00,WeatherDisplay:10.37,2013-02-02 05:16:00,
2013-02-02 00:21:00,22.2,9.3,30.05,West,274,5.0,5.0,57,0.00,CLR,FEW,0.00,WeatherDisplay:10.37,2013-02-02 05:21:00,
2013-02-02 00:26:00,22.2,9.3,30.05,WSW,249,6.9,6.9,57,0.00,CLR,FEW,0.00,WeatherDisplay:10.37,2013-02-02 05:26:00,
2013-02-02 00:31:00,22.2,9.7,30.05,West,260,6.0,6.0,58,0.00,CLR,FEW,0.00,WeatherDisplay:10.37,2013-02-02 05:31:00,
2013-02-02 00:36:00,22.1,9.2,30.05,West,280,6.9,6.9,57,0.00,CLR,FEW,0.00,WeatherDisplay:10.37,2013-02-02 05:36:00,
2013-02-02 00:41:00,21.9,9.0,30.05,West,269,2.3,2.3,57,0.00,CLR,FEW,0.00,WeatherDisplay:10.37,2013-02-02 05:41:00,
2013-02-02 00:46:00,21.9,9.0,30.05,West,275,5.0,5.0,57,0.00,CLR,FEW,0.00,WeatherDisplay:10.37,2013-02-02 05:46:00,
2013-02-02 00:51:00,21.8,9.3,30.05,West,264,9.0,9.0,58,0.00,CLR,FEW,0.00,WeatherDisplay:10.37,2013-02-02 05:51:00,
2013-02-02 00:56:00,21.8,9.3,30.06,WNW,284,11.5,11.5,58,0.00,CLR,FEW,0.00,WeatherDisplay:10.37,2013-02-02 05:56:00,
2013-02-02 01:01:00,21.8,9.3,30.06,West,262,11.5,11.5,58,0.00,CLR,FEW,0.00,WeatherDisplay:10.37,2013-02-02 06:01:00,
2013-02-02 01:06:00,21.8,9.3,30.06,West,264,3.5,3.5,58,0.00,CLR,FEW,0.00,WeatherDisplay:10.37,2013-02-02 06:06:00,
2013-02-02 01:11:00,21.9,9.4,30.06,WSW,257,6.9,6.9,58,0.00,CLR,FEW,0.00,WeatherDisplay:10.37,2013-02-02 06:11:00,
2013-02-02 01:16:00,21.9,9.4,30.06,WSW,258,6.0,6.0,58,0.00,CLR,FEW,0.00,WeatherDisplay:10.37,2013-02-02 06:16:00,
2013-02-02 01:21:00,21.8,9.7,30.06,West,259,5.0,5.0,59,0.00,CLR,FEW,0.00,WeatherDisplay:10.37,2013-02-02 06:21:00,
2013-02-02 01:26:00,21.7,9.6,30.07,WSW,243,11.5,11.5,59,0.00,CLR,FEW,0.00,WeatherDisplay:10.37,2013-02-02 06:26:00,
2013-02-02 01:31:00,21.6,9.5,30.07,WNW,283,6.9,6.9,59,0.00,CLR,FEW,0.00,WeatherDisplay:10.37,2013-02-02 06:31:00,
2013-02-02 01:36:00,21.6,9.5,30.07,West,268,4.0,4.0,59,0.00,CLR,FEW,0.00,WeatherDisplay:10.37,2013-02-02 06:36:00,
2013-02-02 01:41:00,21.6,9.5,30.07,WSW,244,8.1,8.1,59,0.00,CLR,FEW,0.00,WeatherDisplay:10.37,2013-02-02 06:41:00,
2013-02-02 01:46:00,21.4,9.3,30.07,SW,230,5.8,5.8,59,0.00,CLR,FEW,0.00,WeatherDisplay:10.37,2013-02-02 06:46:00,
2013-02-02 01:51:00,21.1,9.4,30.07,SSW,207,6.9,6.9,60,0.00,CLR,FEW,0.00,WeatherDisplay:10.37,2013-02-02 06:51:00,
2013-02-02 01:56:00,20.9,9.2,30.07,SW,223,8.1,8.1,60,0.00,CLR,FEW,0.00,WeatherDisplay:10.37,2013-02-02 06:56:00,
2013-02-02 02:01:00,20.9,9.5,30.07,SW,222,5.0,5.0,61,0.00,CLR,FEW,0.00,WeatherDisplay:10.37,2013-02-02 07:01:00,
2013-02-02 02:06:00,20.9,9.5,30.07,SW,227,6.9,6.9,61,0.00,CLR,FEW,0.00,WeatherDisplay:10.37,2013-02-02 07:06:00,
2013-02-02 02:11:00,20.9,9.9,30.08,SW,234,6.9,6.9,62,0.00,CLR,FEW,0.00,WeatherDisplay:10.37,2013-02-02 07:11:00,
2013-02-02 02:16:00,21.0,10.4,30.08,WSW,242,4.6,4.6,63,0.00,CLR,FEW,0.00,WeatherDisplay:10.37,2013-02-02 07:16:00,
2013-02-02 02:21:00,21.2,10.2,30.08,SW,224,5.8,5.8,62,0.00,CLR,FEW,0.00,WeatherDisplay:10.37,2013-02-02 07:21:00,
2013-02-02 02:26:00,20.9,10.3,30.07,SW,227,9.2,9.2,63,0.00,CLR,FEW,0.00,WeatherDisplay:10.37,2013-02-02 07:26:00,
2013-02-02 02:31:00,20.9,9.9,30.07,WSW,240,8.1,8.1,62,0.00,CLR,FEW,0.00,WeatherDisplay:10.37,2013-02-02 07:31:00,
2013-02-02 02:36:00,20.9,10.3,30.08,SW,222,9.2,9.2,63,0.00,CLR,FEW,0.00,WeatherDisplay:10.37,2013-02-02 07:36:00,
2013-02-02 02:41:00,21.0,10.0,30.08,WSW,243,5.8,5.8,62,0.00,CLR,FEW,0.00,WeatherDisplay:10.37,2013-02-02 07:41:00,
2013-02-02 02:46:00,20.9,9.9,30.08,SW,227,5.8,5.8,62,0.00,CLR,FEW,0.00,WeatherDisplay:10.37,2013-02-02 07:46:00,
2013-02-02 02:51:00,20.9,9.9,30.08,WSW,245,9.2,9.2,62,0.00,CLR,FEW,0.00,WeatherDisplay:10.37,2013-02-02 07:51:00,
2013-02-02 02:56:00,20.9,9.5,30.08,WSW,237,8.1,8.1,61,0.00,CLR,FEW,0.00,WeatherDisplay:10.37,2013-02-02 07:56:00,
2013-02-02 03:01:00,20.9,9.5,30.08,WSW,249,6.9,6.9,61,0.00,CLR,FEW,0.00,WeatherDisplay:10.37,2013-02-02 08:01:00,
2013-02-02 03:06:00,20.9,9.2,30.08,SW,234,10.4,10.4,60,0.00,CLR,FEW,0.00,WeatherDisplay:10.37,2013-02-02 08:06:00,
2013-02-02 03:11:00,21.0,8.9,30.08,WSW,240,7.0,7.0,59,0.00,CLR,FEW,0.00,WeatherDisplay:10.37,2013-02-02 08:11:00,
2013-02-02 03:16:00,20.8,8.7,30.08,WSW,239,10.4,10.4,59,0.00,CLR,FEW,0.00,WeatherDisplay:10.37,2013-02-02 08:16:00,
2013-02-02 03:21:00,20.7,8.2,30.08,WSW,248,10.4,10.4,58,0.00,CLR,FEW,0.00,WeatherDisplay:10.37,2013-02-02 08:21:00,
2013-02-02 03:26:00,20.8,8.3,30.08,SW,230,9.2,9.2,58,0.00,CLR,FEW,0.00,WeatherDisplay:10.37,2013-02-02 08:26:00,
2013-02-02 03:31:00,20.8,7.9,30.08,WSW,246,10.4,10.4,57,0.00,CLR,FEW,0.00,WeatherDisplay:10.37,2013-02-02 08:31:00,
2013-02-02 03:36:00,20.5,7.7,30.09,WSW,246,8.1,8.1,57,0.00,CLR,FEW,0.00,WeatherDisplay:10.37,2013-02-02 08:36:00,
2013-02-02 03:41:00,20.2,7.0,30.09,SW,218,15.0,15.0,56,0.00,CLR,FEW,0.00,WeatherDisplay:10.37,2013-02-02 08:41:00,
2013-02-02 03:46:00,20.1,6.9,30.09,SW,223,11.5,11.5,56,0.00,CLR,FEW,0.00,WeatherDisplay:10.37,2013-02-02 08:46:00,
2013-02-02 03:51:00,20.0,6.8,30.09,WSW,247,11.5,11.5,56,0.00,CLR,FEW,0.00,WeatherDisplay:10.37,2013-02-02 08:51:00,
2013-02-02 03:56:00,19.9,6.3,30.09,WSW,256,13.8,13.8,55,0.00,CLR,FEW,0.00,WeatherDisplay:10.37,2013-02-02 08:56:00,
2013-02-02 04:01:00,19.9,6.7,30.09,WSW,245,11.5,11.5,56,0.00,CLR,FEW,0.00,WeatherDisplay:10.37,2013-02-02 09:01:00,
2013-02-02 04:06:00,19.8,6.6,30.10,WSW,245,5.8,5.8,56,0.00,CLR,FEW,0.00,WeatherDisplay:10.37,2013-02-02 09:06:00,
2013-02-02 04:11:00,19.8,6.2,30.10,WSW,248,9.0,9.0,55,0.00,CLR,FEW,0.00,WeatherDisplay:10.37,2013-02-02 09:11:00,
2013-02-02 04:16:00,19.7,6.5,30.10,WSW,244,6.9,6.9,56,0.00,CLR,FEW,0.00,WeatherDisplay:10.37,2013-02-02 09:16:00,
2013-02-02 04:21:00,19.5,6.3,30.10,WSW,241,11.5,11.5,56,0.00,CLR,FEW,0.00,WeatherDisplay:10.37,2013-02-02 09:21:00,
2013-02-02 04:26:00,19.5,6.7,30.11,SW,236,8.1,8.1,57,0.00,CLR,FEW,0.00,WeatherDisplay:10.37,2013-02-02 09:26:00,
2013-02-02 04:31:00,19.4,6.6,30.11,WSW,252,5.8,5.8,57,0.00,CLR,FEW,0.00,WeatherDisplay:10.37,2013-02-02 09:31:00,
2013-02-02 04:36:00,19.3,6.9,30.11,WSW,247,4.0,4.0,58,0.00,CLR,FEW,0.00,WeatherDisplay:10.37,2013-02-02 09:36:00,
2013-02-02 04:41:00,19.1,6.7,30.11,SW,232,4.6,4.6,58,0.00,CLR,FEW,0.00,WeatherDisplay:10.37,2013-02-02 09:41:00,
2013-02-02 04:46:00,18.9,6.5,30.10,SW,218,3.5,3.5,58,0.00,CLR,FEW,0.00,WeatherDisplay:10.37,2013-02-02 09:46:00,
2013-02-02 04:51:00,18.9,6.9,30.10,WSW,251,4.0,4.0,59,0.00,CLR,FEW,0.00,WeatherDisplay:10.37,2013-02-02 09:51:00,
2013-02-02 04:56:00,18.8,6.4,30.10,WSW,243,6.0,6.0,58,0.00,CLR,FEW,0.00,WeatherDisplay:10.37,2013-02-02 09:56:00,
2013-02-02 05:01:00,18.7,6.4,30.10,WSW,248,8.1,8.1,58,0.00,CLR,FEW,0.00,WeatherDisplay:10.37,2013-02-02 10:01:00,
2013-02-02 05:06:00,18.7,6.4,30.11,West,270,5.8,5.8,58,0.00,CLR,FEW,0.00,WeatherDisplay:10.37,2013-02-02 10:06:00,
2013-02-02 05:11:00,18.6,6.3,30.11,WSW,249,8.1,8.1,58,0.00,CLR,FEW,0.00,WeatherDisplay:10.37,2013-02-02 10:11:00,
2013-02-02 05:16:00,18.7,6.4,30.11,West,270,6.9,6.9,58,0.00,CLR,FEW,0.00,WeatherDisplay:10.37,2013-02-02 10:16:00,
2013-02-02 05:21:00,18.7,6.4,30.11,WSW,255,4.6,4.6,58,0.00,CLR,FEW,0.00,WeatherDisplay:10.37,2013-02-02 10:21:00,
2013-02-02 05:26:00,18.6,6.3,30.11,West,263,4.6,4.6,58,0.00,CLR,FEW,0.00,WeatherDisplay:10.37,2013-02-02 10:26:00,
2013-02-02 05:31:00,18.6,6.3,30.11,WSW,243,6.9,6.9,58,0.00,CLR,FEW,0.00,WeatherDisplay:10.37,2013-02-02 10:31:00,
2013-02-02 05:36:00,18.5,6.5,30.10,WSW,240,8.1,8.1,59,0.00,CLR,FEW,0.00,WeatherDisplay:10.37,2013-02-02 10:36:00,
2013-02-02 05:41:00,18.5,6.2,30.10,WSW,256,9.2,9.2,58,0.00,CLR,FEW,0.00,WeatherDisplay:10.37,2013-02-02 10:41:00,
2013-02-02 05:46:00,18.3,6.4,30.10,WSW,248,3.5,3.5,59,0.00,CLR,FEW,0.00,WeatherDisplay:10.37,2013-02-02 10:46:00,
2013-02-02 05:51:00,18.2,5.9,30.11,West,266,9.2,9.2,58,0.00,CLR,FEW,0.00,WeatherDisplay:10.37,2013-02-02 10:51:00,
2013-02-02 05:56:00,18.2,5.9,30.11,West,260,5.8,5.8,58,0.00,CLR,FEW,0.00,WeatherDisplay:10.37,2013-02-02 10:56:00,
2013-02-02 06:01:00,18.2,6.3,30.11,WSW,248,5.8,5.8,59,0.00,CLR,FEW,0.00,WeatherDisplay:10.37,2013-02-02 11:01:00,
2013-02-02 06:06:00,18.1,5.8,30.11,West,275,4.6,4.6,58,0.00,CLR,FEW,0.00,WeatherDisplay:10.37,2013-02-02 11:06:00,
2013-02-02 06:11:00,18.0,6.1,30.11,West,273,5.8,5.8,59,0.00,CLR,FEW,0.00,WeatherDisplay:10.37,2013-02-02 11:11:00,
2013-02-02 06:16:00,18.0,6.1,30.11,West,272,10.4,10.4,59,0.00,CLR,FEW,0.00,WeatherDisplay:10.37,2013-02-02 11:16:00,
2013-02-02 06:21:00,18.0,6.1,30.11,WSW,258,4.6,4.6,59,0.00,CLR,FEW,0.00,WeatherDisplay:10.37,2013-02-02 11:21:00,
2013-02-02 06:26:00,17.9,6.3,30.11,WSW,254,4.6,4.6,60,0.00,CLR,FEW,0.00,WeatherDisplay:10.37,2013-02-02 11:26:00,
2013-02-02 06:31:00,17.7,5.8,30.12,WSW,251,8.1,8.1,59,0.00,CLR,FEW,0.00,WeatherDisplay:10.37,2013-02-02 11:31:00,
2013-02-02 06:36:00,17.7,6.2,30.11,WSW,258,10.4,10.4,60,0.00,CLR,FEW,0.00,WeatherDisplay:10.37,2013-02-02 11:36:00,
2013-02-02 06:41:00,17.7,6.2,30.11,SW,224,6.9,6.9,60,0.00,CLR,FEW,0.00,WeatherDisplay:10.37,2013-02-02 11:41:00,
2013-02-02 06:46:00,17.5,6.0,30.11,WSW,254,8.1,8.1,60,0.00,CLR,FEW,0.00,WeatherDisplay:10.37,2013-02-02 11:46:00,
2013-02-02 06:51:00,17.5,6.3,30.12,WSW,244,9.2,9.2,61,0.00,CLR,FEW,0.00,WeatherDisplay:10.37,2013-02-02 11:51:00,
2013-02-02 06:56:00,17.4,5.9,30.12,SW,229,5.8,5.8,60,0.00,CLR,FEW,0.00,WeatherDisplay:10.37,2013-02-02 11:56:00,
2013-02-02 07:01:00,17.3,5.8,30.12,WSW,245,3.5,3.5,60,0.00,CLR,FEW,0.00,WeatherDisplay:10.37,2013-02-02 12:01:00,
2013-02-02 07:06:00,17.4,6.2,30.13,SW,229,7.0,7.0,61,0.00,CLR,FEW,0.00,WeatherDisplay:10.37,2013-02-02 12:06:00,
2013-02-02 07:11:00,17.1,5.9,30.13,WSW,241,4.0,4.0,61,0.00,CLR,FEW,0.00,WeatherDisplay:10.37,2013-02-02 12:11:00,
2013-02-02 07:16:00,17.1,5.9,30.13,WSW,237,5.0,5.0,61,0.00,CLR,FEW,0.00,WeatherDisplay:10.37,2013-02-02 12:16:00,
2013-02-02 07:21:00,17.2,6.0,30.13,WSW,247,3.5,3.5,61,0.00,CLR,FEW,0.00,WeatherDisplay:10.37,2013-02-02 12:21:00,
2013-02-02 07:26:00,17.2,6.4,30.13,WSW,246,5.8,5.8,62,0.00,CLR,FEW,0.00,WeatherDisplay:10.37,2013-02-02 12:26:00,
2013-02-02 07:31:00,17.2,6.4,30.14,SW,224,5.8,5.8,62,0.00,CLR,FEW,0.00,WeatherDisplay:10.37,2013-02-02 12:31:00,
2013-02-02 07:36:00,17.2,6.4,30.14,SW,225,4.6,4.6,62,0.00,CLR,FEW,0.00,WeatherDisplay:10.37,2013-02-02 12:36:00,
2013-02-02 07:41:00,17.3,6.5,30.14,SW,222,3.5,3.5,62,0.00,CLR,FEW,0.00,WeatherDisplay:10.37,2013-02-02 12:41:00,
2013-02-02 07:46:00,17.1,6.3,30.14,SW,219,4.0,4.0,62,0.00,CLR,FEW,0.00,WeatherDisplay:10.37,2013-02-02 12:46:00,
2013-02-02 07:51:00,17.2,6.4,30.15,SSW,203,4.6,4.6,62,0.00,CLR,FEW,0.00,WeatherDisplay:10.37,2013-02-02 12:51:00,
2013-02-02 07:56:00,17.2,6.4,30.15,SW,221,5.0,5.0,62,0.00,CLR,FEW,0.00,WeatherDisplay:10.37,2013-02-02 12:56:00,
2013-02-02 08:01:00,17.3,6.5,30.15,SSW,206,7.0,7.0,62,0.00,CLR,FEW,0.00,WeatherDisplay:10.37,2013-02-02 13:01:00,
2013-02-02 08:06:00,17.5,7.0,30.14,SSW,211,7.0,7.0,63,0.00,CLR,FEW,0.00,WeatherDisplay:10.37,2013-02-02 13:06:00,
2013-02-02 08:11:00,17.5,6.7,30.14,SW,215,3.5,3.5,62,0.00,CLR,FEW,0.00,WeatherDisplay:10.37,2013-02-02 13:11:00,
2013-02-02 08:16:00,17.7,6.9,30.14,SW,225,8.1,8.1,62,0.00,CLR,FEW,0.00,WeatherDisplay:10.37,2013-02-02 13:16:00,
2013-02-02 08:21:00,17.8,7.0,30.14,SSW,201,5.8,5.8,62,0.00,CLR,FEW,0.00,WeatherDisplay:10.37,2013-02-02 13:21:00,
2013-02-02 08:26:00,17.8,7.0,30.14,SSW,203,5.8,5.8,62,0.00,CLR,FEW,0.00,WeatherDisplay:10.37,2013-02-02 13:26:00,
2013-02-02 08:31:00,18.1,6.9,30.14,WSW,257,8.1,8.1,61,0.00,CLR,FEW,0.00,WeatherDisplay:10.37,2013-02-02 13:31:00,
2013-02-02 08:36:00,18.4,7.5,30.14,WSW,237,8.1,8.1,62,0.00,CLR,FEW,0.00,WeatherDisplay:10.37,2013-02-02 13:36:00,
2013-02-02 08:41:00,18.8,7.9,30.14,West,266,5.8,5.8,62,0.00,CLR,FEW,0.00,WeatherDisplay:10.37,2013-02-02 13:41:00,
2013-02-02 08:46:00,18.9,8.0,30.13,WSW,248,6.9,6.9,62,0.00,CLR,FEW,0.00,WeatherDisplay:10.37,2013-02-02 13:46:00,
2013-02-02 08:51:00,19.0,7.7,30.13,SW,228,6.9,6.9,61,0.00,CLR,FEW,0.00,WeatherDisplay:10.37,2013-02-02 13:51:00,
2013-02-02 08:56:00,18.8,7.6,30.12,SW,229,5.0,5.0,61,0.00,CLR,FEW,0.00,WeatherDisplay:10.37,2013-02-02 13:56:00,
2013-02-02 09:01:00,18.8,7.6,30.12,SW,218,5.8,5.8,61,0.00,CLR,FEW,0.00,WeatherDisplay:10.37,2013-02-02 14:01:00,
2013-02-02 09:06:00,19.1,7.5,30.12,SSW,193,8.0,8.0,60,0.00,CLR,FEW,0.00,WeatherDisplay:10.37,2013-02-02 14:06:00,
2013-02-02 09:11:00,19.1,7.5,30.11,SSW,212,6.0,6.0,60,0.00,CLR,FEW,0.00,WeatherDisplay:10.37,2013-02-02 14:11:00,
2013-02-02 09:16:00,19.3,7.7,30.11,WSW,239,5.8,5.8,60,0.00,CLR,FEW,0.00,WeatherDisplay:10.37,2013-02-02 14:16:00,
2013-02-02 09:21:00,19.4,7.4,30.11,WSW,237,5.8,5.8,59,0.00,CLR,FEW,0.00,WeatherDisplay:10.37,2013-02-02 14:21:00,
2013-02-02 09:26:00,19.7,8.0,30.11,WSW,249,2.3,2.3,60,0.00,CLR,FEW,0.00,WeatherDisplay:10.37,2013-02-02 14:26:00,
2013-02-02 09:31:00,19.9,7.9,30.10,WSW,246,3.5,3.5,59,0.00,CLR,FEW,0.00,WeatherDisplay:10.37,2013-02-02 14:31:00,
2013-02-02 09:36:00,20.4,8.3,30.10,SW,229,5.0,5.0,59,0.00,CLR,FEW,0.00,WeatherDisplay:10.37,2013-02-02 14:36:00,
2013-02-02 09:41:00,20.0,8.0,30.10,SW,223,3.5,3.5,59,0.00,CLR,FEW,0.00,WeatherDisplay:10.37,2013-02-02 14:41:00,
2013-02-02 09:46:00,19.9,7.5,30.10,SSW,212,3.5,3.5,58,0.00,CLR,FEW,0.00,WeatherDisplay:10.37,2013-02-02 14:46:00,
2013-02-02 09:51:00,20.1,7.7,30.09,SW,218,4.0,4.0,58,0.00,CLR,FEW,0.00,WeatherDisplay:10.37,2013-02-02 14:51:00,
2013-02-02 09:56:00,20.4,8.0,30.09,South,185,3.5,3.5,58,0.00,CLR,FEW,0.00,WeatherDisplay:10.37,2013-02-02 14:56:00,
2013-02-02 10:01:00,20.6,8.1,30.08,South,184,3.5,3.5,58,0.00,CLR,FEW,0.00,WeatherDisplay:10.37,2013-02-02 15:01:00,
2013-02-02 10:06:00,20.8,7.9,30.08,SW,229,6.9,6.9,57,0.00,CLR,FEW,0.00,WeatherDisplay:10.37,2013-02-02 15:06:00,
2013-02-02 10:11:00,20.7,7.5,30.08,South,191,5.8,5.8,56,0.00,CLR,FEW,0.00,WeatherDisplay:10.37,2013-02-02 15:11:00,
2013-02-02 10:16:00,20.8,7.6,30.08,SW,225,4.6,4.6,56,0.00,CLR,FEW,0.00,WeatherDisplay:10.37,2013-02-02 15:16:00,
2013-02-02 10:21:00,21.2,7.9,30.08,SSW,208,8.1,8.1,56,0.00,CLR,FEW,0.00,WeatherDisplay:10.37,2013-02-02 15:21:00,
2013-02-02 10:26:00,21.2,7.5,30.08,SSW,199,8.0,8.0,55,0.00,CLR,FEW,0.00,WeatherDisplay:10.37,2013-02-02 15:26:00,
2013-02-02 10:31:00,21.4,7.7,30.07,SW,214,4.6,4.6,55,0.00,CLR,FEW,0.00,WeatherDisplay:10.37,2013-02-02 15:31:00,
2013-02-02 10:36:00,21.9,7.8,30.07,SW,231,6.9,6.9,54,0.00,CLR,FEW,0.00,WeatherDisplay:10.37,2013-02-02 15:36:00,
2013-02-02 10:41:00,22.4,8.2,30.07,South,184,5.8,5.8,54,0.00,CLR,FEW,0.00,WeatherDisplay:10.37,2013-02-02 15:41:00,
2013-02-02 10:46:00,22.6,8.4,30.06,ESE,110,6.0,6.0,54,0.00,CLR,FEW,0.00,WeatherDisplay:10.37,2013-02-02 15:46:00,
2013-02-02 10:51:00,22.6,8.0,30.06,SE,139,10.0,10.0,53,0.00,CLR,FEW,0.00,WeatherDisplay:10.37,2013-02-02 15:51:00,
2013-02-02 10:56:00,22.7,8.5,30.06,SE,127,8.1,8.1,54,0.00,CLR,FEW,0.00,WeatherDisplay:10.37,2013-02-02 15:56:00,
2013-02-02 11:01:00,23.1,8.5,30.06,South,169,6.9,6.9,53,0.00,CLR,FEW,0.00,WeatherDisplay:10.37,2013-02-02 16:01:00,
2013-02-02 11:06:00,22.9,8.3,30.06,SSW,202,8.1,8.1,53,0.00,CLR,FEW,0.00,WeatherDisplay:10.37,2013-02-02 16:06:00,
2013-02-02 11:11:00,22.9,8.3,30.05,South,180,9.2,9.2,53,0.00,CLR,FEW,0.00,WeatherDisplay:10.37,2013-02-02 16:11:00,
2013-02-02 11:16:00,23.1,8.5,30.05,SSW,199,9.2,9.2,53,0.00,CLR,FEW,0.00,WeatherDisplay:10.37,2013-02-02 16:16:00,
2013-02-02 11:21:00,23.4,8.8,30.05,SSW,209,5.0,5.0,53,0.00,CLR,FEW,0.00,WeatherDisplay:10.37,2013-02-02 16:21:00,
2013-02-02 11:26:00,23.5,8.4,30.04,SSE,168,11.5,11.5,52,0.00,CLR,FEW,0.00,WeatherDisplay:10.37,2013-02-02 16:26:00,
2013-02-02 11:31:00,23.3,8.2,30.04,South,170,11.5,11.5,52,0.00,CLR,FEW,0.00,WeatherDisplay:10.37,2013-02-02 16:31:00,
2013-02-02 11:36:00,23.6,8.5,30.03,SSW,193,8.1,8.1,52,0.00,CLR,FEW,0.00,WeatherDisplay:10.37,2013-02-02 16:36:00,
2013-02-02 11:41:00,23.7,8.2,30.03,SW,214,9.0,9.0,51,0.00,CLR,FEW,0.00,WeatherDisplay:10.37,2013-02-02 16:41:00,
2013-02-02 11:46:00,23.7,8.6,30.03,South,179,5.0,5.0,52,0.00,CLR,FEW,0.00,WeatherDisplay:10.37,2013-02-02 16:46:00,
2013-02-02 11:51:00,23.9,8.4,30.02,SW,219,10.4,10.4,51,0.00,CLR,FEW,0.00,WeatherDisplay:10.37,2013-02-02 16:51:00,
2013-02-02 11:56:00,23.9,8.4,30.02,SSW,199,6.9,6.9,51,0.00,CLR,FEW,0.00,WeatherDisplay:10.37,2013-02-02 16:56:00,
2013-02-02 12:01:00,24.3,8.3,30.01,South,174,6.9,6.9,50,0.00,CLR,FEW,0.00,WeatherDisplay:10.37,2013-02-02 17:01:00,
2013-02-02 12:06:00,24.6,8.6,30.01,SSE,163,5.8,5.8,50,0.00,CLR,FEW,0.00,WeatherDisplay:10.37,2013-02-02 17:06:00,
2013-02-02 12:11:00,24.7,7.8,30.01,SSW,198,16.0,16.0,48,0.00,CLR,FEW,0.00,WeatherDisplay:10.37,2013-02-02 17:11:00,
2013-02-02 12:16:00,24.7,7.8,30.00,South,179,12.7,12.7,48,0.00,CLR,FEW,0.00,WeatherDisplay:10.37,2013-02-02 17:16:00,
2013-02-02 12:21:00,25.0,7.6,30.00,SSW,212,13.8,13.8,47,0.00,CLR,FEW,0.00,WeatherDisplay:10.37,2013-02-02 17:21:00,
2013-02-02 12:26:00,24.9,7.0,29.99,South,187,17.3,17.3,46,0.00,CLR,FEW,0.00,WeatherDisplay:10.37,2013-02-02 17:26:00,
2013-02-02 12:31:00,25.6,7.7,29.99,SW,225,10.4,10.4,46,0.00,CLR,FEW,0.00,WeatherDisplay:10.37,2013-02-02 17:31:00,
2013-02-02 12:36:00,25.6,6.7,29.98,SW,215,19.6,19.6,44,0.00,CLR,FEW,0.00,WeatherDisplay:10.37,2013-02-02 17:36:00,
2013-02-02 12:41:00,26.2,6.7,29.99,SW,232,15.0,15.0,43,0.00,CLR,FEW,0.00,WeatherDisplay:10.37,2013-02-02 17:41:00,
2013-02-02 12:46:00,26.5,5.9,29.98,SSW,203,19.6,19.6,41,0.00,CLR,FEW,0.00,WeatherDisplay:10.37,2013-02-02 17:46:00,
2013-02-02 12:51:00,26.5,5.9,29.98,SSW,212,13.8,13.8,41,0.00,CLR,FEW,0.00,WeatherDisplay:10.37,2013-02-02 17:51:00,
2013-02-02 12:56:00,26.5,5.9,29.98,SSW,197,12.7,12.7,41,0.00,CLR,FEW,0.00,WeatherDisplay:10.37,2013-02-02 17:56:00,
2013-02-02 13:01:00,26.6,6.0,29.97,SSW,193,11.0,11.0,41,0.00,CLR,FEW,0.00,WeatherDisplay:10.37,2013-02-02 18:01:00,
2013-02-02 13:06:00,26.3,5.2,29.97,South,188,19.6,19.6,40,0.00,CLR,FEW,0.00,WeatherDisplay:10.37,2013-02-02 18:06:00,
2013-02-02 13:11:00,26.3,5.2,29.96,SSE,158,15.0,15.0,40,0.00,CLR,FEW,0.00,WeatherDisplay:10.37,2013-02-02 18:11:00,
2013-02-02 13:16:00,26.6,5.5,29.96,SSW,210,17.3,17.3,40,0.00,CLR,FEW,0.00,WeatherDisplay:10.37,2013-02-02 18:16:00,
2013-02-02 13:21:00,26.6,5.5,29.96,SW,220,15.0,15.0,40,0.00,CLR,FEW,0.00,WeatherDisplay:10.37,2013-02-02 18:21:00,
2013-02-02 13:26:00,26.2,4.0,29.96,WSW,251,18.4,18.4,38,0.00,CLR,FEW,0.00,WeatherDisplay:10.37,2013-02-02 18:26:00,
2013-02-02 13:31:00,25.7,3.0,29.96,SW,226,20.7,20.7,37,0.00,CLR,FEW,0.00,WeatherDisplay:10.37,2013-02-02 18:31:00,
2013-02-02 13:36:00,25.6,3.5,29.96,SW,223,24.2,24.2,38,0.00,CLR,FEW,0.00,WeatherDisplay:10.37,2013-02-02 18:36:00,
2013-02-02 13:41:00,25.8,3.6,29.96,SW,223,14.0,14.0,38,0.00,CLR,FEW,0.00,WeatherDisplay:10.37,2013-02-02 18:41:00,
2013-02-02 13:46:00,25.8,3.6,29.96,SSW,203,20.7,20.7,38,0.00,CLR,FEW,0.00,WeatherDisplay:10.37,2013-02-02 18:46:00,
2013-02-02 13:51:00,26.0,3.8,29.95,SSW,212,19.6,19.6,38,0.00,CLR,FEW,0.00,WeatherDisplay:10.37,2013-02-02 18:51:00,
2013-02-02 13:56:00,25.9,3.7,29.95,SW,233,16.1,16.1,38,0.00,CLR,FEW,0.00,WeatherDisplay:10.37,2013-02-02 18:56:00,
2013-02-02 14:01:00,26.7,5.0,29.94,SSW,211,18.4,18.4,39,0.00,CLR,FEW,0.00,WeatherDisplay:10.37,2013-02-02 19:01:00,
2013-02-02 14:06:00,27.0,4.7,29.94,South,177,13.8,13.8,38,0.00,CLR,FEW,0.00,WeatherDisplay:10.37,2013-02-02 19:06:00,
2013-02-02 14:11:00,27.4,5.7,29.94,SSW,206,11.5,11.5,39,0.00,CLR,FEW,0.00,WeatherDisplay:10.37,2013-02-02 19:11:00,
2013-02-02 14:16:00,27.0,4.7,29.94,SW,214,17.3,17.3,38,0.00,CLR,FEW,0.00,WeatherDisplay:10.37,2013-02-02 19:16:00,
2013-02-02 14:21:00,26.8,4.5,29.93,South,186,19.6,19.6,38,0.00,CLR,FEW,0.00,WeatherDisplay:10.37,2013-02-02 19:21:00,
2013-02-02 14:26:00,26.8,4.5,29.93,SSW,206,18.4,18.4,38,0.00,CLR,FEW,0.00,WeatherDisplay:10.37,2013-02-02 19:26:00,
2013-02-02 14:31:00,26.6,4.4,29.93,SSW,197,18.4,18.4,38,0.00,CLR,FEW,0.00,WeatherDisplay:10.37,2013-02-02 19:31:00,
2013-02-02 14:36:00,26.4,4.2,29.93,SSW,213,12.7,12.7,38,0.00,CLR,FEW,0.00,WeatherDisplay:10.37,2013-02-02 19:36:00,
2013-02-02 14:41:00,26.4,4.2,29.93,SSW,211,18.4,18.4,38,0.00,CLR,FEW,0.00,WeatherDisplay:10.37,2013-02-02 19:41:00,
2013-02-02 14:46:00,26.3,4.7,29.93,SW,219,9.2,9.2,39,0.00,CLR,FEW,0.00,WeatherDisplay:10.37,2013-02-02 19:46:00,
2013-02-02 14:51:00,26.5,4.3,29.93,SSW,206,11.5,11.5,38,0.00,CLR,FEW,0.00,WeatherDisplay:10.37,2013-02-02 19:51:00,
2013-02-02 14:56:00,26.9,5.8,29.93,SSW,197,10.0,10.0,40,0.00,CLR,FEW,0.00,WeatherDisplay:10.37,2013-02-02 19:56:00,
2013-02-02 15:01:00,26.3,4.7,29.92,SW,227,12.7,12.7,39,0.00,CLR,FEW,0.00,WeatherDisplay:10.37,2013-02-02 20:01:00,
2013-02-02 15:06:00,26.1,4.5,29.92,SSW,211,17.3,17.3,39,0.00,CLR,FEW,0.00,WeatherDisplay:10.37,2013-02-02 20:06:00,
2013-02-02 15:11:00,26.0,4.9,29.92,SSW,196,11.5,11.5,40,0.00,CLR,FEW,0.00,WeatherDisplay:10.37,2013-02-02 20:11:00,
2013-02-02 15:16:00,26.2,5.1,29.92,SSW,208,12.7,12.7,40,0.00,CLR,FEW,0.00,WeatherDisplay:10.37,2013-02-02 20:16:00,
2013-02-02 15:21:00,26.6,5.5,29.92,West,265,11.5,11.5,40,0.00,CLR,FEW,0.00,WeatherDisplay:10.37,2013-02-02 20:21:00,
2013-02-02 15:26:00,26.4,5.8,29.92,WSW,238,16.1,16.1,41,0.00,CLR,FEW,0.00,WeatherDisplay:10.37,2013-02-02 20:26:00,
2013-02-02 15:31:00,26.2,6.7,29.92,SW,227,13.8,13.8,43,0.00,CLR,FEW,0.00,WeatherDisplay:10.37,2013-02-02 20:31:00,
2013-02-02 15:36:00,26.2,7.2,29.92,West,260,16.1,16.1,44,0.00,CLR,FEW,0.00,WeatherDisplay:10.37,2013-02-02 20:36:00,
2013-02-02 15:41:00,26.0,7.0,29.92,SW,219,13.8,13.8,44,0.00,CLR,FEW,0.00,WeatherDisplay:10.37,2013-02-02 20:41:00,
2013-02-02 15:46:00,25.9,6.9,29.92,SW,231,10.4,10.4,44,0.00,CLR,FEW,0.00,WeatherDisplay:10.37,2013-02-02 20:46:00,
2013-02-02 15:51:00,25.7,7.3,29.92,SSW,200,17.3,17.3,45,0.00,CLR,FEW,0.00,WeatherDisplay:10.37,2013-02-02 20:51:00,
2013-02-02 15:56:00,25.6,7.2,29.92,SW,219,19.6,19.6,45,0.00,CLR,FEW,0.00,WeatherDisplay:10.37,2013-02-02 20:56:00,
2013-02-02 16:01:00,25.5,7.6,29.92,SSW,200,16.1,16.1,46,0.00,CLR,FEW,0.00,WeatherDisplay:10.37,2013-02-02 21:01:00,
2013-02-02 16:06:00,25.3,7.9,29.92,SSW,207,13.8,13.8,47,0.00,CLR,FEW,0.00,WeatherDisplay:10.37,2013-02-02 21:06:00,
2013-02-02 16:11:00,25.4,8.4,29.92,SW,220,16.1,16.1,48,0.00,CLR,FEW,0.00,WeatherDisplay:10.37,2013-02-02 21:11:00,
2013-02-02 16:16:00,25.2,8.2,29.92,SW,217,11.5,11.5,48,0.00,CLR,FEW,0.00,WeatherDisplay:10.37,2013-02-02 21:16:00,
2013-02-02 16:21:00,25.2,8.7,29.92,SSW,211,11.5,11.5,49,0.00,CLR,FEW,0.00,WeatherDisplay:10.37,2013-02-02 21:21:00,
2013-02-02 16:26:00,25.3,8.8,29.92,SSW,207,9.2,9.2,49,0.00,CLR,FEW,0.00,WeatherDisplay:10.37,2013-02-02 21:26:00,
2013-02-02 16:31:00,25.3,8.8,29.92,WSW,239,10.4,10.4,49,0.00,CLR,FEW,0.00,WeatherDisplay:10.37,2013-02-02 21:31:00,
2013-02-02 16:36:00,25.4,9.3,29.92,SW,228,8.1,8.1,50,0.00,CLR,FEW,0.00,WeatherDisplay:10.37,2013-02-02 21:36:00,
2013-02-02 16:41:00,25.4,9.8,29.92,WSW,246,10.4,10.4,51,0.00,CLR,FEW,0.00,WeatherDisplay:10.37,2013-02-02 21:41:00,
2013-02-02 16:46:00,25.5,10.3,29.91,SW,234,9.2,9.2,52,0.00,CLR,FEW,0.00,WeatherDisplay:10.37,2013-02-02 21:46:00,
2013-02-02 16:51:00,25.5,10.7,29.91,WSW,247,5.8,5.8,53,0.00,CLR,FEW,0.00,WeatherDisplay:10.37,2013-02-02 21:51:00,
2013-02-02 16:56:00,25.4,10.6,29.91,SSW,210,8.1,8.1,53,0.00,CLR,FEW,0.00,WeatherDisplay:10.37,2013-02-02 21:56:00,
2013-02-02 17:01:00,25.3,10.5,29.91,SW,235,8.1,8.1,53,0.00,CLR,FEW,0.00,WeatherDisplay:10.37,2013-02-02 22:01:00,
2013-02-02 17:06:00,25.1,10.3,29.91,SW,218,8.1,8.1,53,0.00,CLR,FEW,0.00,WeatherDisplay:10.37,2013-02-02 22:06:00,
2013-02-02 17:11:00,25.1,10.8,29.91,SW,226,5.8,5.8,54,0.00,CLR,FEW,0.00,WeatherDisplay:10.37,2013-02-02 22:11:00,
2013-02-02 17:16:00,25.0,10.7,29.91,SW,232,6.0,6.0,54,0.00,CLR,FEW,0.00,WeatherDisplay:10.37,2013-02-02 22:16:00,
2013-02-02 17:21:00,25.2,10.9,29.92,WSW,248,9.2,9.2,54,0.00,CLR,FEW,0.00,WeatherDisplay:10.37,2013-02-02 22:21:00,
2013-02-02 17:26:00,25.3,11.0,29.92,WSW,250,8.1,8.1,54,0.00,CLR,FEW,0.00,WeatherDisplay:10.37,2013-02-02 22:26:00,
2013-02-02 17:31:00,25.2,10.9,29.92,SW,223,10.4,10.4,54,0.00,CLR,FEW,0.00,WeatherDisplay:10.37,2013-02-02 22:31:00,
2013-02-02 17:36:00,24.9,10.6,29.92,SW,216,10.4,10.4,54,0.00,CLR,FEW,0.00,WeatherDisplay:10.37,2013-02-02 22:36:00,
2013-02-02 17:41:00,24.9,10.6,29.92,WSW,258,9.0,9.0,54,0.00,CLR,FEW,0.00,WeatherDisplay:10.37,2013-02-02 22:41:00,
2013-02-02 17:46:00,24.9,11.0,29.92,WSW,258,11.5,11.5,55,0.00,CLR,FEW,0.00,WeatherDisplay:10.37,2013-02-02 22:46:00,
2013-02-02 17:51:00,24.9,10.6,29.92,SW,222,11.5,11.5,54,0.00,CLR,FEW,0.00,WeatherDisplay:10.37,2013-02-02 22:51:00,
2013-02-02 17:56:00,24.6,11.1,29.92,SW,216,17.3,17.3,56,0.00,CLR,FEW,0.00,WeatherDisplay:10.37,2013-02-02 22:56:00,
2013-02-02 18:01:00,24.5,11.0,29.92,West,269,15.0,15.0,56,0.00,CLR,FEW,0.00,WeatherDisplay:10.37,2013-02-02 23:01:00,
2013-02-02 18:06:00,24.3,11.2,29.92,SW,219,19.0,19.0,57,0.00,CLR,FEW,0.00,WeatherDisplay:10.37,2013-02-02 23:06:00,
2013-02-02 18:11:00,24.1,11.8,29.92,West,261,16.1,16.1,59,0.00,CLR,FEW,0.00,WeatherDisplay:10.37,2013-02-02 23:11:00,
2013-02-02 18:16:00,23.8,11.9,29.92,WSW,246,15.0,15.0,60,0.00,CLR,FEW,0.00,WeatherDisplay:10.37,2013-02-02 23:16:00,
2013-02-02 18:21:00,23.7,12.2,29.92,SW,228,11.5,11.5,61,0.00,CLR,FEW,0.00,WeatherDisplay:10.37,2013-02-02 23:21:00,
2013-02-02 18:26:00,23.7,12.6,29.92,West,263,12.7,12.7,62,0.00,CLR,FEW,0.00,WeatherDisplay:10.37,2013-02-02 23:26:00,
2013-02-02 18:31:00,23.7,12.9,29.92,SW,214,9.2,9.2,63,0.00,CLR,FEW,0.00,WeatherDisplay:10.37,2013-02-02 23:31:00,
2013-02-02 18:36:00,23.4,12.6,29.92,WSW,237,5.8,5.8,63,0.00,CLR,FEW,0.00,WeatherDisplay:10.37,2013-02-02 23:36:00,
2013-02-02 18:41:00,23.2,12.8,29.92,SW,214,11.5,11.5,64,0.00,CLR,FEW,0.00,WeatherDisplay:10.37,2013-02-02 23:41:00,
2013-02-02 18:46:00,22.9,12.9,29.93,SW,229,9.2,9.2,65,0.00,CLR,FEW,0.00,WeatherDisplay:10.37,2013-02-02 23:46:00,
2013-02-02 18:51:00,22.7,13.0,29.92,SW,218,8.1,8.1,66,0.00,CLR,FEW,0.00,WeatherDisplay:10.37,2013-02-02 23:51:00,
2013-02-02 18:56:00,22.6,13.3,29.92,SW,225,7.0,7.0,67,0.00,CLR,FEW,0.00,WeatherDisplay:10.37,2013-02-02 23:56:00,
2013-02-02 19:01:00,22.5,13.5,29.92,WSW,237,6.9,6.9,68,0.00,CLR,FEW,0.00,WeatherDisplay:10.37,2013-02-03 00:01:00,
2013-02-02 19:06:00,22.5,14.2,29.92,WSW,241,3.5,3.5,70,0.00,CLR,FEW,0.00,WeatherDisplay:10.37,2013-02-03 00:06:00,
2013-02-02 19:11:00,22.5,14.2,29.92,WNW,282,5.8,5.8,70,0.00,CLR,FEW,0.00,WeatherDisplay:10.37,2013-02-03 00:11:00,
2013-02-02 19:16:00,22.3,14.3,29.92,West,266,5.8,5.8,71,0.00,CLR,FEW,0.00,WeatherDisplay:10.37,2013-02-03 00:16:00,
2013-02-02 19:21:00,22.2,14.5,29.93,WSW,253,8.1,8.1,72,0.00,CLR,FEW,0.00,WeatherDisplay:10.37,2013-02-03 00:21:00,
2013-02-02 19:26:00,21.9,14.6,29.93,WSW,241,5.0,5.0,73,0.00,CLR,FEW,0.00,WeatherDisplay:10.37,2013-02-03 00:26:00,
2013-02-02 19:31:00,22.1,14.8,29.93,SW,229,5.8,5.8,73,0.00,CLR,FEW,0.00,WeatherDisplay:10.37,2013-02-03 00:31:00,
2013-02-02 19:36:00,22.1,15.1,29.93,WSW,247,6.9,6.9,74,0.00,CLR,FEW,0.00,WeatherDisplay:10.37,2013-02-03 00:36:00,
2013-02-02 19:41:00,22.0,15.3,29.93,WSW,251,6.9,6.9,75,0.00,CLR,FEW,0.00,WeatherDisplay:10.37,2013-02-03 00:41:00,
2013-02-02 19:46:00,22.3,15.9,29.93,WSW,247,4.0,4.0,76,0.00,CLR,FEW,0.00,WeatherDisplay:10.37,2013-02-03 00:46:00,
2013-02-02 19:51:00,21.9,15.5,29.92,West,266,5.8,5.8,76,0.00,CLR,FEW,0.00,WeatherDisplay:10.37,2013-02-03 00:51:00,
2013-02-02 19:56:00,21.9,15.8,29.93,WSW,255,6.9,6.9,77,0.00,CLR,FEW,0.00,WeatherDisplay:10.37,2013-02-03 00:56:00,
2013-02-02 20:01:00,22.0,15.9,29.93,WSW,250,4.6,4.6,77,0.00,CLR,FEW,0.00,WeatherDisplay:10.37,2013-02-03 01:01:00,
2013-02-02 20:06:00,21.8,16.0,29.93,WSW,248,9.2,9.2,78,0.00,CLR,FEW,0.00,WeatherDisplay:10.37,2013-02-03 01:06:00,
2013-02-02 20:11:00,21.9,16.4,29.93,WSW,257,6.9,6.9,79,0.00,CLR,FEW,0.00,WeatherDisplay:10.37,2013-02-03 01:11:00,
2013-02-02 20:16:00,22.0,16.8,29.93,WSW,243,6.0,6.0,80,0.00,CLR,FEW,0.00,WeatherDisplay:10.37,2013-02-03 01:16:00,
2013-02-02 20:21:00,21.7,16.5,29.93,WSW,244,3.5,3.5,80,0.00,CLR,FEW,0.00,WeatherDisplay:10.37,2013-02-03 01:21:00,
2013-02-02 20:26:00,21.7,16.8,29.93,WSW,243,3.5,3.5,81,0.00,CLR,FEW,0.00,WeatherDisplay:10.37,2013-02-03 01:26:00,
2013-02-02 20:31:00,21.6,16.7,29.93,WSW,243,5.0,5.0,81,0.00,CLR,FEW,0.00,WeatherDisplay:10.37,2013-02-03 01:31:00,
2013-02-02 20:36:00,21.5,16.9,29.93,WSW,242,4.6,4.6,82,0.00,CLR,FEW,0.00,WeatherDisplay:10.37,2013-02-03 01:36:00,
2013-02-02 20:41:00,21.4,16.8,29.93,WSW,242,3.5,3.5,82,0.00,CLR,FEW,0.00,WeatherDisplay:10.37,2013-02-03 01:41:00,
2013-02-02 20:46:00,21.6,17.2,29.93,WSW,240,5.8,5.8,83,0.00,CLR,FEW,0.00,WeatherDisplay:10.37,2013-02-03 01:46:00,
2013-02-02 20:51:00,21.6,17.2,29.93,WSW,238,3.5,3.5,83,0.00,CLR,FEW,0.00,WeatherDisplay:10.37,2013-02-03 01:51:00,
2013-02-02 20:56:00,21.7,17.6,29.93,SW,233,4.0,4.0,84,0.00,CLR,FEW,0.00,WeatherDisplay:10.37,2013-02-03 01:56:00,
2013-02-02 21:01:00,21.7,17.6,29.93,WSW,242,3.5,3.5,84,0.00,CLR,FEW,0.00,WeatherDisplay:10.37,2013-02-03 02:01:00,
2013-02-02 21:06:00,21.6,17.8,29.93,SW,235,4.6,4.6,85,0.00,CLR,FEW,0.00,WeatherDisplay:10.37,2013-02-03 02:06:00,
2013-02-02 21:11:00,21.6,17.8,29.93,SW,224,4.0,4.0,85,0.00,CLR,FEW,0.00,WeatherDisplay:10.37,2013-02-03 02:11:00,
2013-02-02 21:16:00,21.6,17.8,29.93,SW,235,4.0,4.0,85,0.00,CLR,FEW,0.00,WeatherDisplay:10.37,2013-02-03 02:16:00,
2013-02-02 21:21:00,21.5,17.7,29.93,SSW,205,3.5,3.5,85,0.00,CLR,FEW,0.00,WeatherDisplay:10.37,2013-02-03 02:21:00,
2013-02-02 21:26:00,21.5,18.0,29.93,SW,221,4.6,4.6,86,0.00,CLR,FEW,0.00,WeatherDisplay:10.37,2013-02-03 02:26:00,
2013-02-02 21:31:00,21.5,18.0,29.93,SW,231,6.9,6.9,86,0.00,CLR,FEW,0.00,WeatherDisplay:10.37,2013-02-03 02:31:00,
2013-02-02 21:36:00,21.5,18.0,29.93,SW,236,4.6,4.6,86,0.00,CLR,FEW,0.00,WeatherDisplay:10.37,2013-02-03 02:36:00,
2013-02-02 21:41:00,21.4,18.1,29.93,SW,235,3.5,3.5,87,0.00,CLR,FEW,0.00,WeatherDisplay:10.37,2013-02-03 02:41:00,
2013-02-02 21:46:00,21.6,18.3,29.92,WSW,248,3.5,3.5,87,0.00,CLR,FEW,0.00,WeatherDisplay:10.37,2013-02-03 02:46:00,
2013-02-02 21:51:00,21.7,18.4,29.92,WSW,244,3.5,3.5,87,0.00,CLR,FEW,0.00,WeatherDisplay:10.37,2013-02-03 02:51:00,
2013-02-02 21:56:00,21.6,18.3,29.93,WSW,244,4.0,4.0,87,0.00,CLR,FEW,0.00,WeatherDisplay:10.37,2013-02-03 02:56:00,
2013-02-02 22:01:00,21.5,18.2,29.92,WSW,244,4.0,4.0,87,0.00,CLR,FEW,0.00,WeatherDisplay:10.37,2013-02-03 03:01:00,
2013-02-02 22:06:00,21.5,18.2,29.92,SW,232,5.0,5.0,87,0.00,CLR,FEW,0.00,WeatherDisplay:10.37,2013-02-03 03:06:00,
2013-02-02 22:11:00,21.5,18.5,29.92,SW,230,4.6,4.6,88,0.00,CLR,FEW,0.00,WeatherDisplay:10.37,2013-02-03 03:11:00,
2013-02-02 22:16:00,21.5,18.5,29.92,SW,218,4.0,4.0,88,0.00,CLR,FEW,0.00,WeatherDisplay:10.37,2013-02-03 03:16:00,
2013-02-02 22:21:00,21.5,18.5,29.92,SSW,211,5.8,5.8,88,0.00,CLR,FEW,0.00,WeatherDisplay:10.37,2013-02-03 03:21:00,
2013-02-02 22:26:00,21.5,18.8,29.92,SW,229,3.5,3.5,89,0.00,CLR,FEW,0.00,WeatherDisplay:10.37,2013-02-03 03:26:00,
2013-02-02 22:31:00,21.6,18.9,29.92,SW,229,2.3,2.3,89,0.00,CLR,FEW,0.00,WeatherDisplay:10.37,2013-02-03 03:31:00,
2013-02-02 22:36:00,21.5,18.8,29.92,SW,229,0.0,0.0,89,0.00,CLR,FEW,0.00,WeatherDisplay:10.37,2013-02-03 03:36:00,
2013-02-02 22:41:00,21.6,18.9,29.92,SW,229,0.0,0.0,89,0.00,CLR,FEW,0.00,WeatherDisplay:10.37,2013-02-03 03:41:00,
2013-02-02 22:46:00,21.5,18.8,29.92,SW,229,0.0,0.0,89,0.00,CLR,FEW,0.00,WeatherDisplay:10.37,2013-02-03 03:46:00,
2013-02-02 22:51:00,21.5,19.0,29.92,SW,229,0.0,0.0,90,0.00,CLR,FEW,0.00,WeatherDisplay:10.37,2013-02-03 03:51:00,
2013-02-02 22:56:00,21.6,19.1,29.91,SW,229,0.0,0.0,90,0.00,CLR,FEW,0.00,WeatherDisplay:10.37,2013-02-03 03:56:00,
2013-02-02 23:01:00,21.6,19.1,29.91,SW,229,0.0,0.0,90,0.00,CLR,FEW,0.00,WeatherDisplay:10.37,2013-02-03 04:01:00,
2013-02-02 23:06:00,21.6,19.1,29.91,SW,229,0.0,0.0,90,0.00,CLR,FEW,0.00,WeatherDisplay:10.37,2013-02-03 04:06:00,
2013-02-02 23:11:00,21.6,19.4,29.91,SW,229,0.0,0.0,91,0.00,CLR,FEW,0.00,WeatherDisplay:10.37,2013-02-03 04:11:00,
2013-02-02 23:16:00,21.6,19.4,29.91,SW,229,0.0,0.0,91,0.00,CLR,FEW,0.00,WeatherDisplay:10.37,2013-02-03 04:16:00,
2013-02-02 23:21:00,21.6,19.4,29.91,SW,229,0.0,0.0,91,0.00,CLR,FEW,0.00,WeatherDisplay:10.37,2013-02-03 04:21:00,
2013-02-02 23:26:00,21.6,19.4,29.91,SW,229,0.0,0.0,91,0.00,CLR,FEW,0.00,WeatherDisplay:10.37,2013-02-03 04:26:00,
2013-02-02 23:31:00,21.6,19.4,29.91,SW,229,0.0,0.0,91,0.00,CLR,FEW,0.00,WeatherDisplay:10.37,2013-02-03 04:31:00,
2013-02-02 23:36:00,21.7,19.5,29.91,SW,229,0.0,0.0,91,0.00,CLR,FEW,0.00,WeatherDisplay:10.37,2013-02-03 04:36:00,
2013-02-02 23:41:00,21.6,19.4,29.91,SW,229,0.0,0.0,91,0.00,CLR,FEW,0.00,WeatherDisplay:10.37,2013-02-03 04:41:00,
2013-02-02 23:46:00,21.6,19.6,29.90,SW,229,0.0,0.0,92,0.00,CLR,FEW,0.00,WeatherDisplay:10.37,2013-02-03 04:46:00,
2013-02-02 23:51:00,21.6,19.4,29.90,SW,229,0.0,0.0,91,0.00,CLR,FEW,0.00,WeatherDisplay:10.37,2013-02-03 04:51:00,
2013-02-02 23:56:00,21.6,19.6,29.90,SW,229,0.0,0.0,92,0.00,CLR,FEW,0.00,WeatherDisplay:10.37,2013-02-03 04:56:00,